sensor_id;sensor_type;location;lat;lon;timestamp;temperature;humidity
25973;DHT22;13765;51.166;4.466;2023-01-05T00:01:07;11.00;99.90
25973;DHT22;13765;51.166;4.466;2023-01-05T00:03:34;11.00;99.90
25973;DHT22;13765;51.166;4.466;2023-01-05T00:06:08;11.00;99.90
25973;DHT22;13765;51.166;4.466;2023-01-05T00:08:34;11.10;99.90
25973;DHT22;13765;51.166;4.466;2023-01-05T00:11:17;11.00;99.90
25973;DHT22;13765;51.166;4.466;2023-01-05T00:14:02;11.10;99.90
25973;DHT22;13765;51.166;4.466;2023-01-05T00:16:46;11.10;99.90
25973;DHT22;13765;51.166;4.466;2023-01-05T00:19:31;11.20;99.90
25973;DHT22;13765;51.166;4.466;2023-01-05T00:22:23;11.10;99.90
25973;DHT22;13765;51.166;4.466;2023-01-05T00:25:04;11.20;99.90
25973;DHT22;13765;51.166;4.466;2023-01-05T00:27:31;11.30;99.90
25973;DHT22;13765;51.166;4.466;2023-01-05T00:30:02;11.20;99.90
25973;DHT22;13765;51.166;4.466;2023-01-05T00:32:28;11.30;99.90
25973;DHT22;13765;51.166;4.466;2023-01-05T00:34:58;11.30;99.90
25973;DHT22;13765;51.166;4.466;2023-01-05T00:37:26;11.30;99.90
25973;DHT22;13765;51.166;4.466;2023-01-05T00:39:53;11.20;99.90
25973;DHT22;13765;51.166;4.466;2023-01-05T00:42:23;11.30;99.90
25973;DHT22;13765;51.166;4.466;2023-01-05T00:44:49;11.30;99.90
25973;DHT22;13765;51.166;4.466;2023-01-05T00:47:15;11.30;99.90
25973;DHT22;13765;51.166;4.466;2023-01-05T00:49:40;11.30;99.90
25973;DHT22;13765;51.166;4.466;2023-01-05T00:52:06;11.40;99.90
25973;DHT22;13765;51.166;4.466;2023-01-05T00:54:35;11.40;99.90
25973;DHT22;13765;51.166;4.466;2023-01-05T00:57:03;11.40;99.90
25973;DHT22;13765;51.166;4.466;2023-01-05T00:59:34;11.30;99.90
25973;DHT22;13765;51.166;4.466;2023-01-05T01:02:00;11.40;99.90
25973;DHT22;13765;51.166;4.466;2023-01-05T01:04:32;11.40;99.90
25973;DHT22;13765;51.166;4.466;2023-01-05T01:07:00;11.30;99.90
25973;DHT22;13765;51.166;4.466;2023-01-05T01:09:28;11.20;99.90
25973;DHT22;13765;51.166;4.466;2023-01-05T01:11:55;11.20;99.90
25973;DHT22;13765;51.166;4.466;2023-01-05T01:14:21;11.20;99.90
25973;DHT22;13765;51.166;4.466;2023-01-05T01:16:47;11.20;99.90
25973;DHT22;13765;51.166;4.466;2023-01-05T01:19:15;11.20;99.90
25973;DHT22;13765;51.166;4.466;2023-01-05T01:21:42;11.20;99.90
25973;DHT22;13765;51.166;4.466;2023-01-05T01:24:09;11.20;99.90
25973;DHT22;13765;51.166;4.466;2023-01-05T01:26:39;11.20;99.90
25973;DHT22;13765;51.166;4.466;2023-01-05T01:29:05;11.20;99.90
25973;DHT22;13765;51.166;4.466;2023-01-05T01:31:31;11.20;99.90
25973;DHT22;13765;51.166;4.466;2023-01-05T01:34:00;11.20;99.90
25973;DHT22;13765;51.166;4.466;2023-01-05T01:36:26;11.20;99.90
25973;DHT22;13765;51.166;4.466;2023-01-05T01:38:52;11.10;99.90
25973;DHT22;13765;51.166;4.466;2023-01-05T01:41:20;11.10;99.90
25973;DHT22;13765;51.166;4.466;2023-01-05T01:43:52;11.10;99.90
25973;DHT22;13765;51.166;4.466;2023-01-05T01:46:22;11.20;99.90
25973;DHT22;13765;51.166;4.466;2023-01-05T01:48:58;11.10;99.90
25973;DHT22;13765;51.166;4.466;2023-01-05T01:51:40;11.20;99.90
25973;DHT22;13765;51.166;4.466;2023-01-05T01:54:12;11.20;99.90
25973;DHT22;13765;51.166;4.466;2023-01-05T01:56:46;11.20;99.90
25973;DHT22;13765;51.166;4.466;2023-01-05T01:59:16;11.30;99.90
25973;DHT22;13765;51.166;4.466;2023-01-05T02:01:43;11.20;99.90
25973;DHT22;13765;51.166;4.466;2023-01-05T02:04:11;11.20;99.90
25973;DHT22;13765;51.166;4.466;2023-01-05T02:06:37;11.20;99.90
25973;DHT22;13765;51.166;4.466;2023-01-05T02:09:07;11.20;99.90
25973;DHT22;13765;51.166;4.466;2023-01-05T02:17:25;11.20;99.90
25973;DHT22;13765;51.166;4.466;2023-01-05T02:41:23;11.30;99.90
25973;DHT22;13765;51.166;4.466;2023-01-05T02:43:50;11.40;99.90
25973;DHT22;13765;51.166;4.466;2023-01-05T02:46:19;11.30;99.90
25973;DHT22;13765;51.166;4.466;2023-01-05T02:48:46;11.40;99.90
25973;DHT22;13765;51.166;4.466;2023-01-05T02:51:18;11.40;99.90
25973;DHT22;13765;51.166;4.466;2023-01-05T02:54:11;11.40;99.90
25973;DHT22;13765;51.166;4.466;2023-01-05T02:56:45;11.40;99.90
25973;DHT22;13765;51.166;4.466;2023-01-05T02:59:25;11.50;99.90
25973;DHT22;13765;51.166;4.466;2023-01-05T03:01:58;11.50;99.90
25973;DHT22;13765;51.166;4.466;2023-01-05T03:07:07;11.40;99.90
25973;DHT22;13765;51.166;4.466;2023-01-05T03:09:36;11.40;99.90
25973;DHT22;13765;51.166;4.466;2023-01-05T03:12:28;11.50;99.90
25973;DHT22;13765;51.166;4.466;2023-01-05T03:15:27;11.60;99.90
25973;DHT22;13765;51.166;4.466;2023-01-05T03:18:08;11.60;99.90
25973;DHT22;13765;51.166;4.466;2023-01-05T03:20:39;11.60;99.90
25973;DHT22;13765;51.166;4.466;2023-01-05T03:23:09;11.50;99.90
25973;DHT22;13765;51.166;4.466;2023-01-05T03:25:54;11.40;99.90
25973;DHT22;13765;51.166;4.466;2023-01-05T03:28:41;11.30;99.90
25973;DHT22;13765;51.166;4.466;2023-01-05T03:31:38;11.40;99.90
25973;DHT22;13765;51.166;4.466;2023-01-05T03:34:46;11.30;99.90
25973;DHT22;13765;51.166;4.466;2023-01-05T03:37:46;11.40;99.90
25973;DHT22;13765;51.166;4.466;2023-01-05T03:40:24;11.40;99.90
25973;DHT22;13765;51.166;4.466;2023-01-05T03:42:54;11.40;99.90
25973;DHT22;13765;51.166;4.466;2023-01-05T03:45:25;11.40;99.90
25973;DHT22;13765;51.166;4.466;2023-01-05T03:47:52;11.40;99.90
25973;DHT22;13765;51.166;4.466;2023-01-05T03:50:20;11.40;99.90
25973;DHT22;13765;51.166;4.466;2023-01-05T03:52:48;11.40;99.90
25973;DHT22;13765;51.166;4.466;2023-01-05T03:55:19;11.40;99.90
25973;DHT22;13765;51.166;4.466;2023-01-05T03:57:45;11.40;99.90
25973;DHT22;13765;51.166;4.466;2023-01-05T04:00:11;11.40;99.90
25973;DHT22;13765;51.166;4.466;2023-01-05T04:02:41;11.40;99.90
25973;DHT22;13765;51.166;4.466;2023-01-05T04:05:10;11.40;99.90
25973;DHT22;13765;51.166;4.466;2023-01-05T04:07:35;11.40;99.90
25973;DHT22;13765;51.166;4.466;2023-01-05T04:10:04;11.40;99.90
25973;DHT22;13765;51.166;4.466;2023-01-05T04:12:31;11.40;99.90
25973;DHT22;13765;51.166;4.466;2023-01-05T04:14:57;11.40;99.90
25973;DHT22;13765;51.166;4.466;2023-01-05T04:17:23;11.40;99.90
25973;DHT22;13765;51.166;4.466;2023-01-05T04:19:49;11.40;99.90
25973;DHT22;13765;51.166;4.466;2023-01-05T04:22:15;11.40;99.90
25973;DHT22;13765;51.166;4.466;2023-01-05T04:24:41;11.40;99.90
25973;DHT22;13765;51.166;4.466;2023-01-05T04:27:07;11.40;99.90
25973;DHT22;13765;51.166;4.466;2023-01-05T04:29:36;11.40;99.90
25973;DHT22;13765;51.166;4.466;2023-01-05T04:32:04;11.50;99.90
25973;DHT22;13765;51.166;4.466;2023-01-05T04:34:30;11.50;99.90
25973;DHT22;13765;51.166;4.466;2023-01-05T04:36:56;11.40;99.90
25973;DHT22;13765;51.166;4.466;2023-01-05T04:39:25;11.40;99.90
25973;DHT22;13765;51.166;4.466;2023-01-05T04:41:52;11.40;99.90
25973;DHT22;13765;51.166;4.466;2023-01-05T04:44:20;11.40;99.90
25973;DHT22;13765;51.166;4.466;2023-01-05T04:46:46;11.40;99.90
25973;DHT22;13765;51.166;4.466;2023-01-05T04:49:14;11.40;99.90
25973;DHT22;13765;51.166;4.466;2023-01-05T04:51:41;11.40;99.90
25973;DHT22;13765;51.166;4.466;2023-01-05T04:54:09;11.40;99.90
25973;DHT22;13765;51.166;4.466;2023-01-05T04:56:35;11.40;99.90
25973;DHT22;13765;51.166;4.466;2023-01-05T04:59:04;11.40;99.90
25973;DHT22;13765;51.166;4.466;2023-01-05T05:01:30;11.40;99.90
25973;DHT22;13765;51.166;4.466;2023-01-05T05:03:56;11.30;99.90
25973;DHT22;13765;51.166;4.466;2023-01-05T05:06:27;11.40;99.90
25973;DHT22;13765;51.166;4.466;2023-01-05T05:08:55;11.40;99.90
25973;DHT22;13765;51.166;4.466;2023-01-05T05:11:21;11.50;99.90
25973;DHT22;13765;51.166;4.466;2023-01-05T05:13:47;11.50;99.90
25973;DHT22;13765;51.166;4.466;2023-01-05T05:16:13;11.40;99.90
25973;DHT22;13765;51.166;4.466;2023-01-05T05:18:42;11.50;99.90
25973;DHT22;13765;51.166;4.466;2023-01-05T05:21:08;11.30;99.90
25973;DHT22;13765;51.166;4.466;2023-01-05T05:23:36;11.40;99.90
25973;DHT22;13765;51.166;4.466;2023-01-05T05:26:02;11.40;99.90
25973;DHT22;13765;51.166;4.466;2023-01-05T05:28:30;11.40;99.90
25973;DHT22;13765;51.166;4.466;2023-01-05T05:30:56;11.50;99.90
25973;DHT22;13765;51.166;4.466;2023-01-05T05:33:27;11.40;99.90
25973;DHT22;13765;51.166;4.466;2023-01-05T05:35:53;11.40;99.90
25973;DHT22;13765;51.166;4.466;2023-01-05T05:38:21;11.20;99.90
25973;DHT22;13765;51.166;4.466;2023-01-05T05:40:50;11.30;99.90
25973;DHT22;13765;51.166;4.466;2023-01-05T05:43:20;11.30;99.90
25973;DHT22;13765;51.166;4.466;2023-01-05T05:45:46;11.20;99.90
25973;DHT22;13765;51.166;4.466;2023-01-05T05:48:12;11.30;99.90
25973;DHT22;13765;51.166;4.466;2023-01-05T05:50:38;11.30;99.90
25973;DHT22;13765;51.166;4.466;2023-01-05T05:53:09;11.30;99.90
25973;DHT22;13765;51.166;4.466;2023-01-05T05:55:37;11.30;99.90
25973;DHT22;13765;51.166;4.466;2023-01-05T05:58:03;11.30;99.90
25973;DHT22;13765;51.166;4.466;2023-01-05T06:00:34;11.30;99.90
25973;DHT22;13765;51.166;4.466;2023-01-05T06:03:00;11.40;99.90
25973;DHT22;13765;51.166;4.466;2023-01-05T06:05:25;11.30;99.90
25973;DHT22;13765;51.166;4.466;2023-01-05T06:07:53;11.30;99.90
25973;DHT22;13765;51.166;4.466;2023-01-05T06:10:22;11.20;99.90
25973;DHT22;13765;51.166;4.466;2023-01-05T06:12:52;11.10;99.90
25973;DHT22;13765;51.166;4.466;2023-01-05T06:15:19;11.10;99.90
25973;DHT22;13765;51.166;4.466;2023-01-05T06:17:46;11.10;99.90
25973;DHT22;13765;51.166;4.466;2023-01-05T06:20:17;11.10;99.90
25973;DHT22;13765;51.166;4.466;2023-01-05T06:22:43;11.10;99.90
25973;DHT22;13765;51.166;4.466;2023-01-05T06:25:12;11.10;99.90
25973;DHT22;13765;51.166;4.466;2023-01-05T06:27:38;11.20;99.90
25973;DHT22;13765;51.166;4.466;2023-01-05T06:30:06;11.20;99.90
25973;DHT22;13765;51.166;4.466;2023-01-05T06:32:37;11.20;99.90
25973;DHT22;13765;51.166;4.466;2023-01-05T06:35:03;11.20;99.90
25973;DHT22;13765;51.166;4.466;2023-01-05T06:37:32;11.30;99.90
25973;DHT22;13765;51.166;4.466;2023-01-05T06:40:01;11.20;99.90
25973;DHT22;13765;51.166;4.466;2023-01-05T06:42:27;11.20;99.90
25973;DHT22;13765;51.166;4.466;2023-01-05T06:44:53;11.10;99.90
25973;DHT22;13765;51.166;4.466;2023-01-05T06:47:19;11.10;99.90
25973;DHT22;13765;51.166;4.466;2023-01-05T06:49:47;11.10;99.90
25973;DHT22;13765;51.166;4.466;2023-01-05T06:52:13;11.20;99.90
25973;DHT22;13765;51.166;4.466;2023-01-05T06:54:44;11.30;99.90
25973;DHT22;13765;51.166;4.466;2023-01-05T06:57:13;11.30;99.90
25973;DHT22;13765;51.166;4.466;2023-01-05T06:59:42;11.30;99.90
25973;DHT22;13765;51.166;4.466;2023-01-05T07:02:19;11.30;99.90
25973;DHT22;13765;51.166;4.466;2023-01-05T07:04:46;11.30;99.90
25973;DHT22;13765;51.166;4.466;2023-01-05T07:07:13;11.30;99.90
25973;DHT22;13765;51.166;4.466;2023-01-05T07:09:41;11.30;99.90
25973;DHT22;13765;51.166;4.466;2023-01-05T07:12:09;11.20;99.90
25973;DHT22;13765;51.166;4.466;2023-01-05T07:14:37;11.20;99.90
25973;DHT22;13765;51.166;4.466;2023-01-05T07:17:06;11.20;99.90
25973;DHT22;13765;51.166;4.466;2023-01-05T07:19:32;11.10;99.90
25973;DHT22;13765;51.166;4.466;2023-01-05T07:21:58;11.10;99.90
25973;DHT22;13765;51.166;4.466;2023-01-05T07:24:24;11.10;99.90
25973;DHT22;13765;51.166;4.466;2023-01-05T07:26:53;11.10;99.90
25973;DHT22;13765;51.166;4.466;2023-01-05T07:29:19;11.10;99.90
25973;DHT22;13765;51.166;4.466;2023-01-05T07:31:45;11.10;99.90
25973;DHT22;13765;51.166;4.466;2023-01-05T07:34:17;11.10;99.90
25973;DHT22;13765;51.166;4.466;2023-01-05T07:36:43;11.10;99.90
25973;DHT22;13765;51.166;4.466;2023-01-05T07:39:09;11.20;99.90
25973;DHT22;13765;51.166;4.466;2023-01-05T07:41:35;11.10;99.90
25973;DHT22;13765;51.166;4.466;2023-01-05T07:44:02;11.10;99.90
25973;DHT22;13765;51.166;4.466;2023-01-05T07:46:33;11.10;99.90
25973;DHT22;13765;51.166;4.466;2023-01-05T07:49:00;11.20;99.90
25973;DHT22;13765;51.166;4.466;2023-01-05T07:51:28;11.10;99.90
25973;DHT22;13765;51.166;4.466;2023-01-05T07:53:54;11.10;99.90
25973;DHT22;13765;51.166;4.466;2023-01-05T07:56:20;11.00;99.90
25973;DHT22;13765;51.166;4.466;2023-01-05T07:58:49;11.00;99.90
25973;DHT22;13765;51.166;4.466;2023-01-05T08:01:15;11.00;99.90
25973;DHT22;13765;51.166;4.466;2023-01-05T08:03:43;11.00;99.90
25973;DHT22;13765;51.166;4.466;2023-01-05T08:06:14;10.90;99.90
25973;DHT22;13765;51.166;4.466;2023-01-05T08:08:43;10.90;99.90
25973;DHT22;13765;51.166;4.466;2023-01-05T08:11:12;10.90;99.90
25973;DHT22;13765;51.166;4.466;2023-01-05T08:13:41;11.00;99.90
25973;DHT22;13765;51.166;4.466;2023-01-05T08:16:31;11.00;99.90
25973;DHT22;13765;51.166;4.466;2023-01-05T08:18:58;10.90;99.90
25973;DHT22;13765;51.166;4.466;2023-01-05T08:21:24;10.90;99.90
25973;DHT22;13765;51.166;4.466;2023-01-05T08:23:53;10.90;99.90
25973;DHT22;13765;51.166;4.466;2023-01-05T08:26:24;10.90;99.90
25973;DHT22;13765;51.166;4.466;2023-01-05T08:28:52;10.90;99.90
25973;DHT22;13765;51.166;4.466;2023-01-05T08:31:26;11.00;99.90
25973;DHT22;13765;51.166;4.466;2023-01-05T08:33:59;10.90;99.90
25973;DHT22;13765;51.166;4.466;2023-01-05T08:36:27;10.90;99.90
25973;DHT22;13765;51.166;4.466;2023-01-05T08:38:58;10.80;99.90
25973;DHT22;13765;51.166;4.466;2023-01-05T08:41:34;10.80;99.90
25973;DHT22;13765;51.166;4.466;2023-01-05T08:44:05;10.80;99.90
25973;DHT22;13765;51.166;4.466;2023-01-05T08:46:35;11.00;99.90
25973;DHT22;13765;51.166;4.466;2023-01-05T08:49:03;11.00;99.90
25973;DHT22;13765;51.166;4.466;2023-01-05T08:51:31;11.10;99.90
25973;DHT22;13765;51.166;4.466;2023-01-05T08:53:57;11.10;99.90
25973;DHT22;13765;51.166;4.466;2023-01-05T08:56:23;11.10;99.90
25973;DHT22;13765;51.166;4.466;2023-01-05T08:58:53;11.10;99.90
25973;DHT22;13765;51.166;4.466;2023-01-05T09:01:23;11.10;99.90
25973;DHT22;13765;51.166;4.466;2023-01-05T09:03:51;11.00;99.90
25973;DHT22;13765;51.166;4.466;2023-01-05T09:06:20;11.00;99.90
25973;DHT22;13765;51.166;4.466;2023-01-05T09:08:46;11.00;99.90
25973;DHT22;13765;51.166;4.466;2023-01-05T09:11:15;11.00;99.90
25973;DHT22;13765;51.166;4.466;2023-01-05T09:13:45;11.10;99.90
25973;DHT22;13765;51.166;4.466;2023-01-05T09:16:14;11.10;99.90
25973;DHT22;13765;51.166;4.466;2023-01-05T09:18:41;11.00;99.90
25973;DHT22;13765;51.166;4.466;2023-01-05T09:21:08;11.20;99.90
25973;DHT22;13765;51.166;4.466;2023-01-05T09:23:36;11.10;99.90
25973;DHT22;13765;51.166;4.466;2023-01-05T09:26:04;11.10;99.90
25973;DHT22;13765;51.166;4.466;2023-01-05T09:28:33;11.10;99.90
25973;DHT22;13765;51.166;4.466;2023-01-05T09:31:12;11.10;99.90
25973;DHT22;13765;51.166;4.466;2023-01-05T09:33:39;11.00;99.90
25973;DHT22;13765;51.166;4.466;2023-01-05T09:36:08;11.00;99.90
25973;DHT22;13765;51.166;4.466;2023-01-05T09:38:37;11.10;99.90
25973;DHT22;13765;51.166;4.466;2023-01-05T09:41:24;11.20;99.90
25973;DHT22;13765;51.166;4.466;2023-01-05T09:44:01;11.10;99.90
25973;DHT22;13765;51.166;4.466;2023-01-05T09:46:34;11.00;99.90
25973;DHT22;13765;51.166;4.466;2023-01-05T09:49:05;11.00;99.90
25973;DHT22;13765;51.166;4.466;2023-01-05T09:51:32;10.90;99.90
25973;DHT22;13765;51.166;4.466;2023-01-05T09:53:59;10.90;99.90
25973;DHT22;13765;51.166;4.466;2023-01-05T09:56:36;10.80;99.90
25973;DHT22;13765;51.166;4.466;2023-01-05T10:01:30;10.80;99.90
25973;DHT22;13765;51.166;4.466;2023-01-05T10:04:01;10.80;99.90
25973;DHT22;13765;51.166;4.466;2023-01-05T10:06:33;10.80;99.90
25973;DHT22;13765;51.166;4.466;2023-01-05T10:09:03;10.80;99.90
25973;DHT22;13765;51.166;4.466;2023-01-05T10:15:07;11.00;99.90
25973;DHT22;13765;51.166;4.466;2023-01-05T10:17:36;11.00;99.90
25973;DHT22;13765;51.166;4.466;2023-01-05T10:20:30;10.90;99.90
25973;DHT22;13765;51.166;4.466;2023-01-05T10:23:11;11.00;99.90
25973;DHT22;13765;51.166;4.466;2023-01-05T10:25:49;11.00;99.90
25973;DHT22;13765;51.166;4.466;2023-01-05T10:28:44;11.00;99.90
25973;DHT22;13765;51.166;4.466;2023-01-05T10:33:50;11.10;99.90
25973;DHT22;13765;51.166;4.466;2023-01-05T10:45:14;11.10;99.90
25973;DHT22;13765;51.166;4.466;2023-01-05T10:47:47;11.10;99.90
25973;DHT22;13765;51.166;4.466;2023-01-05T10:53:08;11.20;99.90
25973;DHT22;13765;51.166;4.466;2023-01-05T10:58:27;11.20;99.90
25973;DHT22;13765;51.166;4.466;2023-01-05T11:00:55;11.30;99.90
25973;DHT22;13765;51.166;4.466;2023-01-05T11:03:35;11.40;99.90
25973;DHT22;13765;51.166;4.466;2023-01-05T11:06:02;11.50;99.90
25973;DHT22;13765;51.166;4.466;2023-01-05T11:08:30;11.50;99.90
25973;DHT22;13765;51.166;4.466;2023-01-05T11:11:06;11.50;99.90
25973;DHT22;13765;51.166;4.466;2023-01-05T11:13:46;11.60;99.90
25973;DHT22;13765;51.166;4.466;2023-01-05T11:16:17;11.60;99.90
25973;DHT22;13765;51.166;4.466;2023-01-05T11:18:52;11.80;99.90
25973;DHT22;13765;51.166;4.466;2023-01-05T11:24:38;11.90;99.90
25973;DHT22;13765;51.166;4.466;2023-01-05T11:27:23;12.00;99.90
25973;DHT22;13765;51.166;4.466;2023-01-05T11:32:42;12.20;99.90
25973;DHT22;13765;51.166;4.466;2023-01-05T11:35:24;12.30;99.90
25973;DHT22;13765;51.166;4.466;2023-01-05T11:37:52;12.30;99.90
25973;DHT22;13765;51.166;4.466;2023-01-05T11:40:22;12.30;99.90
25973;DHT22;13765;51.166;4.466;2023-01-05T11:42:54;12.40;99.90
25973;DHT22;13765;51.166;4.466;2023-01-05T11:45:24;12.30;99.90
25973;DHT22;13765;51.166;4.466;2023-01-05T11:47:58;12.40;99.90
25973;DHT22;13765;51.166;4.466;2023-01-05T11:50:30;12.40;99.90
25973;DHT22;13765;51.166;4.466;2023-01-05T11:53:01;12.60;99.90
25973;DHT22;13765;51.166;4.466;2023-01-05T12:03:49;12.70;99.90
25973;DHT22;13765;51.166;4.466;2023-01-05T12:06:48;12.70;99.90
25973;DHT22;13765;51.166;4.466;2023-01-05T12:09:23;12.70;99.90
25973;DHT22;13765;51.166;4.466;2023-01-05T12:17:43;12.60;99.90
25973;DHT22;13765;51.166;4.466;2023-01-05T12:20:31;12.50;99.90
25973;DHT22;13765;51.166;4.466;2023-01-05T12:34:01;12.50;99.90
25973;DHT22;13765;51.166;4.466;2023-01-05T12:45:28;12.60;99.90
25973;DHT22;13765;51.166;4.466;2023-01-05T12:48:12;12.50;99.90
25973;DHT22;13765;51.166;4.466;2023-01-05T12:50:45;12.50;99.90
25973;DHT22;13765;51.166;4.466;2023-01-05T12:55:50;12.60;99.90
25973;DHT22;13765;51.166;4.466;2023-01-05T12:58:32;12.70;99.90
25973;DHT22;13765;51.166;4.466;2023-01-05T13:01:00;12.80;99.90
25973;DHT22;13765;51.166;4.466;2023-01-05T13:03:33;12.90;99.90
25973;DHT22;13765;51.166;4.466;2023-01-05T13:06:13;13.00;99.90
25973;DHT22;13765;51.166;4.466;2023-01-05T13:08:57;12.90;99.90
25973;DHT22;13765;51.166;4.466;2023-01-05T13:11:30;12.90;99.90
25973;DHT22;13765;51.166;4.466;2023-01-05T13:16:47;12.90;99.90
25973;DHT22;13765;51.166;4.466;2023-01-05T13:19:23;12.90;99.90
25973;DHT22;13765;51.166;4.466;2023-01-05T13:22:02;12.90;99.90
25973;DHT22;13765;51.166;4.466;2023-01-05T13:24:39;12.90;99.90
25973;DHT22;13765;51.166;4.466;2023-01-05T13:27:11;12.80;99.90
25973;DHT22;13765;51.166;4.466;2023-01-05T13:29:44;12.80;99.90
25973;DHT22;13765;51.166;4.466;2023-01-05T13:37:54;12.80;99.90
25973;DHT22;13765;51.166;4.466;2023-01-05T13:48:37;12.80;99.90
25973;DHT22;13765;51.166;4.466;2023-01-05T13:54:03;12.70;99.90
25973;DHT22;13765;51.166;4.466;2023-01-05T13:56:33;12.60;99.90
25973;DHT22;13765;51.166;4.466;2023-01-05T14:01:43;12.50;99.90
25973;DHT22;13765;51.166;4.466;2023-01-05T14:04:21;12.30;99.90
25973;DHT22;13765;51.166;4.466;2023-01-05T14:06:49;12.30;99.90
25973;DHT22;13765;51.166;4.466;2023-01-05T14:09:29;12.20;99.90
25973;DHT22;13765;51.166;4.466;2023-01-05T14:12:24;12.10;99.90
25973;DHT22;13765;51.166;4.466;2023-01-05T14:23:00;12.30;99.90
25973;DHT22;13765;51.166;4.466;2023-01-05T14:47:00;12.20;99.90
25973;DHT22;13765;51.166;4.466;2023-01-05T14:52:00;12.30;99.90
25973;DHT22;13765;51.166;4.466;2023-01-05T14:59:46;12.20;99.90
25973;DHT22;13765;51.166;4.466;2023-01-05T15:02:24;12.20;99.90
25973;DHT22;13765;51.166;4.466;2023-01-05T15:04:53;12.30;99.90
25973;DHT22;13765;51.166;4.466;2023-01-05T15:10:42;12.50;99.90
25973;DHT22;13765;51.166;4.466;2023-01-05T15:19:09;12.50;99.90
25973;DHT22;13765;51.166;4.466;2023-01-05T15:22:03;12.50;99.90
25973;DHT22;13765;51.166;4.466;2023-01-05T15:36:16;12.50;99.90
25973;DHT22;13765;51.166;4.466;2023-01-05T15:38:48;12.40;99.90
25973;DHT22;13765;51.166;4.466;2023-01-05T15:41:18;12.40;99.90
25973;DHT22;13765;51.166;4.466;2023-01-05T15:43:46;12.40;99.90
25973;DHT22;13765;51.166;4.466;2023-01-05T15:46:21;12.30;99.90
25973;DHT22;13765;51.166;4.466;2023-01-05T15:48:53;12.40;99.90
25973;DHT22;13765;51.166;4.466;2023-01-05T15:51:27;12.40;99.90
25973;DHT22;13765;51.166;4.466;2023-01-05T15:53:59;12.40;99.90
25973;DHT22;13765;51.166;4.466;2023-01-05T15:56:30;12.40;99.90
25973;DHT22;13765;51.166;4.466;2023-01-05T15:58:57;12.40;99.90
25973;DHT22;13765;51.166;4.466;2023-01-05T16:01:24;12.50;99.90
25973;DHT22;13765;51.166;4.466;2023-01-05T16:04:03;12.50;99.90
25973;DHT22;13765;51.166;4.466;2023-01-05T16:06:31;12.50;99.90
25973;DHT22;13765;51.166;4.466;2023-01-05T16:09:06;12.50;99.90
25973;DHT22;13765;51.166;4.466;2023-01-05T16:11:39;12.50;99.90
25973;DHT22;13765;51.166;4.466;2023-01-05T16:16:38;12.50;99.90
25973;DHT22;13765;51.166;4.466;2023-01-05T16:21:51;12.50;99.90
25973;DHT22;13765;51.166;4.466;2023-01-05T16:27:03;12.60;99.90
25973;DHT22;13765;51.166;4.466;2023-01-05T16:29:33;12.60;99.90
25973;DHT22;13765;51.166;4.466;2023-01-05T16:32:00;12.60;99.90
25973;DHT22;13765;51.166;4.466;2023-01-05T16:34:29;12.60;99.90
25973;DHT22;13765;51.166;4.466;2023-01-05T16:37:04;12.70;99.90
25973;DHT22;13765;51.166;4.466;2023-01-05T16:39:40;12.70;99.90
25973;DHT22;13765;51.166;4.466;2023-01-05T16:42:20;12.60;99.90
25973;DHT22;13765;51.166;4.466;2023-01-05T16:45:22;12.60;99.90
25973;DHT22;13765;51.166;4.466;2023-01-05T16:47:52;12.50;99.90
25973;DHT22;13765;51.166;4.466;2023-01-05T16:53:04;12.40;99.90
25973;DHT22;13765;51.166;4.466;2023-01-05T16:55:37;12.50;99.90
25973;DHT22;13765;51.166;4.466;2023-01-05T16:58:31;12.50;99.90
25973;DHT22;13765;51.166;4.466;2023-01-05T17:00:50;12.50;99.90
25973;DHT22;13765;51.166;4.466;2023-01-05T17:03:24;12.40;99.90
25973;DHT22;13765;51.166;4.466;2023-01-05T17:05:54;12.50;99.90
25973;DHT22;13765;51.166;4.466;2023-01-05T17:08:22;12.50;99.90
25973;DHT22;13765;51.166;4.466;2023-01-05T17:10:56;12.50;99.90
25973;DHT22;13765;51.166;4.466;2023-01-05T17:13:24;12.50;99.90
25973;DHT22;13765;51.166;4.466;2023-01-05T17:15:53;12.50;99.90
25973;DHT22;13765;51.166;4.466;2023-01-05T17:18:26;12.40;99.90
25973;DHT22;13765;51.166;4.466;2023-01-05T17:20:53;12.50;99.90
25973;DHT22;13765;51.166;4.466;2023-01-05T17:23:28;12.50;99.90
25973;DHT22;13765;51.166;4.466;2023-01-05T17:25:57;12.50;99.90
25973;DHT22;13765;51.166;4.466;2023-01-05T17:28:25;12.40;99.90
25973;DHT22;13765;51.166;4.466;2023-01-05T17:30:51;12.30;99.90
25973;DHT22;13765;51.166;4.466;2023-01-05T17:33:18;12.30;99.90
25973;DHT22;13765;51.166;4.466;2023-01-05T17:35:47;12.20;99.90
25973;DHT22;13765;51.166;4.466;2023-01-05T17:38:19;12.20;99.90
25973;DHT22;13765;51.166;4.466;2023-01-05T17:40:46;12.30;99.90
25973;DHT22;13765;51.166;4.466;2023-01-05T17:43:12;12.30;99.90
25973;DHT22;13765;51.166;4.466;2023-01-05T17:45:41;12.30;99.90
25973;DHT22;13765;51.166;4.466;2023-01-05T17:48:10;12.40;99.90
25973;DHT22;13765;51.166;4.466;2023-01-05T17:50:39;12.40;99.90
25973;DHT22;13765;51.166;4.466;2023-01-05T17:53:05;12.40;99.90
25973;DHT22;13765;51.166;4.466;2023-01-05T17:55:36;12.40;99.90
25973;DHT22;13765;51.166;4.466;2023-01-05T17:58:05;12.30;99.90
25973;DHT22;13765;51.166;4.466;2023-01-05T18:00:33;12.40;99.90
25973;DHT22;13765;51.166;4.466;2023-01-05T18:02:59;12.50;99.90
25973;DHT22;13765;51.166;4.466;2023-01-05T18:05:25;12.60;99.90
25973;DHT22;13765;51.166;4.466;2023-01-05T18:07:51;12.60;99.90
25973;DHT22;13765;51.166;4.466;2023-01-05T18:10:23;12.60;99.90
25973;DHT22;13765;51.166;4.466;2023-01-05T18:12:49;12.60;99.90
25973;DHT22;13765;51.166;4.466;2023-01-05T18:15:16;12.60;99.90
25973;DHT22;13765;51.166;4.466;2023-01-05T18:17:45;12.60;99.90
25973;DHT22;13765;51.166;4.466;2023-01-05T18:20:13;12.50;99.90
25973;DHT22;13765;51.166;4.466;2023-01-05T18:22:42;12.50;99.90
25973;DHT22;13765;51.166;4.466;2023-01-05T18:25:08;12.50;99.90
25973;DHT22;13765;51.166;4.466;2023-01-05T18:27:36;12.40;99.90
25973;DHT22;13765;51.166;4.466;2023-01-05T18:30:03;12.50;99.90
25973;DHT22;13765;51.166;4.466;2023-01-05T18:32:32;12.40;99.90
25973;DHT22;13765;51.166;4.466;2023-01-05T18:34:58;12.40;99.90
25973;DHT22;13765;51.166;4.466;2023-01-05T18:37:27;12.30;99.90
25973;DHT22;13765;51.166;4.466;2023-01-05T18:39:53;12.20;99.90
25973;DHT22;13765;51.166;4.466;2023-01-05T18:42:21;12.10;99.90
25973;DHT22;13765;51.166;4.466;2023-01-05T18:44:51;12.10;99.90
25973;DHT22;13765;51.166;4.466;2023-01-05T18:47:17;12.10;99.90
25973;DHT22;13765;51.166;4.466;2023-01-05T18:49:43;12.00;99.90
25973;DHT22;13765;51.166;4.466;2023-01-05T18:52:09;12.10;99.90
25973;DHT22;13765;51.166;4.466;2023-01-05T18:54:38;11.90;99.90
25973;DHT22;13765;51.166;4.466;2023-01-05T18:57:04;11.90;99.90
25973;DHT22;13765;51.166;4.466;2023-01-05T18:59:30;12.00;99.90